sensor_id;sensor_type;location;lat;lon;timestamp;pressure;altitude;pressure_sealevel;temperature;humidity
50364;BME280;36272;59.400;17.982;2023-03-14T00:29:47;96985.63;;;6.99;100.00
50364;BME280;36272;59.400;17.982;2023-03-14T00:54:49;96959.38;;;6.97;100.00
50364;BME280;36272;59.400;17.982;2023-03-14T01:16:59;96959.50;;;7.06;100.00
50364;BME280;36272;59.400;17.982;2023-03-14T01:28:07;96962.34;;;7.10;100.00
50364;BME280;36272;59.400;17.982;2023-03-14T01:33:12;96946.69;;;7.08;100.00
50364;BME280;36272;59.400;17.982;2023-03-14T01:38:25;96953.59;;;7.09;100.00
50364;BME280;36272;59.400;17.982;2023-03-14T01:43:35;96958.34;;;7.12;100.00
50364;BME280;36272;59.400;17.982;2023-03-14T01:48:55;96952.13;;;7.17;100.00
50364;BME280;36272;59.400;17.982;2023-03-14T01:54:18;96954.44;;;7.24;100.00
50364;BME280;36272;59.400;17.982;2023-03-14T01:59:30;96967.16;;;7.27;100.00
50364;BME280;36272;59.400;17.982;2023-03-14T02:04:45;96970.78;;;7.31;100.00
50364;BME280;36272;59.400;17.982;2023-03-14T02:23:05;97011.38;;;7.37;100.00
50364;BME280;36272;59.400;17.982;2023-03-14T02:41:12;97009.22;;;7.39;100.00
50364;BME280;36272;59.400;17.982;2023-03-14T03:10:53;97035.41;;;7.46;100.00
50364;BME280;36272;59.400;17.982;2023-03-14T03:28:52;97049.41;;;7.51;100.00
50364;BME280;36272;59.400;17.982;2023-03-14T03:34:19;97050.91;;;7.57;100.00
50364;BME280;36272;59.400;17.982;2023-03-14T03:45:19;97081.03;;;7.53;100.00
50364;BME280;36272;59.400;17.982;2023-03-14T03:50:21;97088.22;;;7.52;100.00
50364;BME280;36272;59.400;17.982;2023-03-14T03:55:22;97076.50;;;7.53;99.98
50364;BME280;36272;59.400;17.982;2023-03-14T04:00:24;97069.13;;;7.50;99.75
50364;BME280;36272;59.400;17.982;2023-03-14T04:05:26;97107.72;;;7.48;99.37
50364;BME280;36272;59.400;17.982;2023-03-14T04:10:28;97093.34;;;7.49;99.08
50364;BME280;36272;59.400;17.982;2023-03-14T04:15:30;97111.38;;;7.52;98.85
50364;BME280;36272;59.400;17.982;2023-03-14T04:20:34;97089.28;;;7.51;98.35
50364;BME280;36272;59.400;17.982;2023-03-14T04:25:36;97106.56;;;7.54;98.16
50364;BME280;36272;59.400;17.982;2023-03-14T04:30:37;97116.38;;;7.53;97.78
50364;BME280;36272;59.400;17.982;2023-03-14T04:35:41;97117.78;;;7.51;97.84
50364;BME280;36272;59.400;17.982;2023-03-14T04:40:43;97119.44;;;7.47;97.66
50364;BME280;36272;59.400;17.982;2023-03-14T04:45:45;97126.91;;;7.44;97.42
50364;BME280;36272;59.400;17.982;2023-03-14T04:50:47;97140.50;;;7.43;96.61
50364;BME280;36272;59.400;17.982;2023-03-14T04:55:54;97144.44;;;7.46;97.11
50364;BME280;36272;59.400;17.982;2023-03-14T05:01:02;97164.13;;;7.44;97.14
50364;BME280;36272;59.400;17.982;2023-03-14T05:06:04;97167.38;;;7.41;96.67
50364;BME280;36272;59.400;17.982;2023-03-14T05:11:06;97181.72;;;7.40;96.54
50364;BME280;36272;59.400;17.982;2023-03-14T05:16:09;97167.16;;;7.38;96.59
50364;BME280;36272;59.400;17.982;2023-03-14T05:21:11;97198.06;;;7.34;96.17
50364;BME280;36272;59.400;17.982;2023-03-14T05:26:13;97224.91;;;7.32;96.36
50364;BME280;36272;59.400;17.982;2023-03-14T05:31:15;97244.09;;;7.29;96.36
50364;BME280;36272;59.400;17.982;2023-03-14T05:36:17;97244.69;;;7.26;96.19
50364;BME280;36272;59.400;17.982;2023-03-14T05:41:18;97242.53;;;7.28;96.23
50364;BME280;36272;59.400;17.982;2023-03-14T05:46:20;97257.16;;;7.25;96.17
50364;BME280;36272;59.400;17.982;2023-03-14T05:51:22;97275.78;;;7.25;95.98
50364;BME280;36272;59.400;17.982;2023-03-14T05:56:24;97288.34;;;7.20;95.44
50364;BME280;36272;59.400;17.982;2023-03-14T06:01:25;97302.47;;;7.15;95.33
50364;BME280;36272;59.400;17.982;2023-03-14T06:06:27;97308.59;;;7.16;95.62
50364;BME280;36272;59.400;17.982;2023-03-14T06:11:51;97315.69;;;7.20;94.94
50364;BME280;36272;59.400;17.982;2023-03-14T06:16:53;97332.78;;;7.14;95.50
50364;BME280;36272;59.400;17.982;2023-03-14T06:21:55;97345.84;;;7.10;95.51
50364;BME280;36272;59.400;17.982;2023-03-14T06:26:56;97351.94;;;7.11;95.26
50364;BME280;36272;59.400;17.982;2023-03-14T06:32:03;97346.91;;;7.09;95.20
50364;BME280;36272;59.400;17.982;2023-03-14T06:37:06;97382.31;;;7.05;95.41
50364;BME280;36272;59.400;17.982;2023-03-14T06:42:08;97391.63;;;7.02;95.57
50364;BME280;36272;59.400;17.982;2023-03-14T06:47:10;97401.75;;;7.00;95.73
50364;BME280;36272;59.400;17.982;2023-03-14T06:52:11;97394.06;;;6.98;95.73
50364;BME280;36272;59.400;17.982;2023-03-14T06:57:13;97411.91;;;6.93;95.65
50364;BME280;36272;59.400;17.982;2023-03-14T07:02:14;97431.03;;;6.90;95.92
50364;BME280;36272;59.400;17.982;2023-03-14T07:07:16;97446.72;;;6.91;96.05
50364;BME280;36272;59.400;17.982;2023-03-14T07:12:18;97455.97;;;6.99;95.35
50364;BME280;36272;59.400;17.982;2023-03-14T07:17:20;97469.03;;;6.95;95.29
50364;BME280;36272;59.400;17.982;2023-03-14T07:22:21;97481.78;;;6.93;94.93
50364;BME280;36272;59.400;17.982;2023-03-14T07:27:23;97490.75;;;7.03;94.76
50364;BME280;36272;59.400;17.982;2023-03-14T07:32:25;97495.97;;;7.13;94.92
50364;BME280;36272;59.400;17.982;2023-03-14T07:37:26;97528.28;;;7.31;94.44
50364;BME280;36272;59.400;17.982;2023-03-14T07:42:28;97533.41;;;7.51;94.18
50364;BME280;36272;59.400;17.982;2023-03-14T07:47:30;97545.44;;;7.49;93.73
50364;BME280;36272;59.400;17.982;2023-03-14T07:52:31;97573.84;;;7.19;94.37
50364;BME280;36272;59.400;17.982;2023-03-14T07:57:33;97559.44;;;6.80;95.19
50364;BME280;36272;59.400;17.982;2023-03-14T08:02:35;97572.78;;;6.64;95.98
50364;BME280;36272;59.400;17.982;2023-03-14T08:07:37;97588.28;;;6.47;95.82
50364;BME280;36272;59.400;17.982;2023-03-14T08:12:39;97599.75;;;6.37;96.05
50364;BME280;36272;59.400;17.982;2023-03-14T08:17:40;97607.97;;;6.35;96.46
50364;BME280;36272;59.400;17.982;2023-03-14T08:22:42;97607.44;;;6.33;96.14
50364;BME280;36272;59.400;17.982;2023-03-14T08:27:43;97606.66;;;6.28;96.31
50364;BME280;36272;59.400;17.982;2023-03-14T08:32:45;97610.34;;;6.37;96.52
50364;BME280;36272;59.400;17.982;2023-03-14T08:37:47;97604.47;;;6.45;96.48
50364;BME280;36272;59.400;17.982;2023-03-14T08:42:48;97617.47;;;6.57;95.74
50364;BME280;36272;59.400;17.982;2023-03-14T08:47:50;97612.38;;;6.61;95.89
50364;BME280;36272;59.400;17.982;2023-03-14T08:52:52;97598.00;;;6.72;95.33
50364;BME280;36272;59.400;17.982;2023-03-14T08:57:53;97600.38;;;6.74;95.18
50364;BME280;36272;59.400;17.982;2023-03-14T09:02:55;97615.22;;;6.80;94.98
50364;BME280;36272;59.400;17.982;2023-03-14T09:07:57;97627.94;;;6.88;94.65
50364;BME280;36272;59.400;17.982;2023-03-14T09:12:58;97620.72;;;6.99;94.62
50364;BME280;36272;59.400;17.982;2023-03-14T09:18:01;97618.28;;;7.08;94.04
50364;BME280;36272;59.400;17.982;2023-03-14T09:23:03;97619.84;;;7.14;94.28
50364;BME280;36272;59.400;17.982;2023-03-14T09:28:04;97629.59;;;7.29;93.69
50364;BME280;36272;59.400;17.982;2023-03-14T09:33:06;97639.47;;;7.23;93.19
50364;BME280;36272;59.400;17.982;2023-03-14T09:38:08;97652.03;;;7.07;93.37
50364;BME280;36272;59.400;17.982;2023-03-14T09:43:11;97646.97;;;7.11;93.37
50364;BME280;36272;59.400;17.982;2023-03-14T09:48:16;97663.31;;;7.39;91.55
50364;BME280;36272;59.400;17.982;2023-03-14T09:53:26;97675.81;;;7.33;94.12
50364;BME280;36272;59.400;17.982;2023-03-14T09:58:29;97677.94;;;7.36;92.36
50364;BME280;36272;59.400;17.982;2023-03-14T10:03:35;97672.06;;;7.39;92.48
50364;BME280;36272;59.400;17.982;2023-03-14T10:08:42;97684.03;;;7.42;91.79
50364;BME280;36272;59.400;17.982;2023-03-14T10:19:05;97699.69;;;7.49;91.50
50364;BME280;36272;59.400;17.982;2023-03-14T10:24:19;97701.03;;;7.46;91.14
50364;BME280;36272;59.400;17.982;2023-03-14T10:29:26;97727.00;;;7.59;91.17
50364;BME280;36272;59.400;17.982;2023-03-14T10:34:37;97717.16;;;7.65;91.34
50364;BME280;36272;59.400;17.982;2023-03-14T10:39:47;97716.00;;;7.77;90.75
50364;BME280;36272;59.400;17.982;2023-03-14T10:44:56;97722.34;;;7.81;90.44
50364;BME280;36272;59.400;17.982;2023-03-14T10:50:25;97721.56;;;7.80;91.17
50364;BME280;36272;59.400;17.982;2023-03-14T10:55:27;97754.38;;;7.70;90.03
50364;BME280;36272;59.400;17.982;2023-03-14T11:00:28;97740.06;;;7.56;90.29
50364;BME280;36272;59.400;17.982;2023-03-14T11:05:37;97731.44;;;7.74;89.34
50364;BME280;36272;59.400;17.982;2023-03-14T11:10:43;97752.31;;;7.57;90.59
50364;BME280;36272;59.400;17.982;2023-03-14T11:31:58;97764.59;;;7.42;90.38
50364;BME280;36272;59.400;17.982;2023-03-14T11:37:32;97764.78;;;7.56;91.11
50364;BME280;36272;59.400;17.982;2023-03-14T11:42:35;97784.97;;;7.68;90.11
50364;BME280;36272;59.400;17.982;2023-03-14T11:47:41;97772.47;;;7.68;89.17
50364;BME280;36272;59.400;17.982;2023-03-14T11:53:11;97782.03;;;7.69;89.03
50364;BME280;36272;59.400;17.982;2023-03-14T12:09:00;97806.09;;;7.43;88.74
50364;BME280;36272;59.400;17.982;2023-03-14T12:19:29;97817.56;;;7.28;89.35
50364;BME280;36272;59.400;17.982;2023-03-14T12:24:37;97816.00;;;7.17;89.39
50364;BME280;36272;59.400;17.982;2023-03-14T12:30:00;97812.56;;;7.17;90.20
50364;BME280;36272;59.400;17.982;2023-03-14T12:35:38;97823.19;;;7.17;90.60
50364;BME280;36272;59.400;17.982;2023-03-14T12:40:53;97814.69;;;7.09;89.69
50364;BME280;36272;59.400;17.982;2023-03-14T12:51:20;97811.53;;;6.92;90.08
50364;BME280;36272;59.400;17.982;2023-03-14T12:57:03;97813.41;;;6.81;91.55
50364;BME280;36272;59.400;17.982;2023-03-14T13:12:56;97820.59;;;6.49;92.45
50364;BME280;36272;59.400;17.982;2023-03-14T13:18:13;97829.38;;;6.45;92.55
50364;BME280;36272;59.400;17.982;2023-03-14T13:23:27;97835.50;;;6.40;92.98
50364;BME280;36272;59.400;17.982;2023-03-14T13:28:30;97836.78;;;6.32;93.06
50364;BME280;36272;59.400;17.982;2023-03-14T13:33:33;97852.19;;;6.35;92.53
50364;BME280;36272;59.400;17.982;2023-03-14T13:38:57;97850.88;;;6.33;93.20
50364;BME280;36272;59.400;17.982;2023-03-14T13:44:14;97850.59;;;6.24;93.17
50364;BME280;36272;59.400;17.982;2023-03-14T13:49:21;97857.94;;;5.96;92.60
50364;BME280;36272;59.400;17.982;2023-03-14T13:54:26;97856.31;;;5.85;93.41
50364;BME280;36272;59.400;17.982;2023-03-14T13:59:31;97860.84;;;5.84;93.79
50364;BME280;36272;59.400;17.982;2023-03-14T14:04:36;97862.69;;;5.89;93.45
50364;BME280;36272;59.400;17.982;2023-03-14T14:09:40;97879.66;;;5.83;92.84
50364;BME280;36272;59.400;17.982;2023-03-14T14:15:11;97881.41;;;5.61;93.45
50364;BME280;36272;59.400;17.982;2023-03-14T14:25:18;97903.09;;;5.43;94.01
50364;BME280;36272;59.400;17.982;2023-03-14T14:30:27;97903.53;;;5.29;94.17
50364;BME280;36272;59.400;17.982;2023-03-14T14:35:44;97906.09;;;5.19;95.15
50364;BME280;36272;59.400;17.982;2023-03-14T14:40:53;97914.56;;;5.16;95.03
50364;BME280;36272;59.400;17.982;2023-03-14T14:45:56;97925.19;;;5.21;95.00
50364;BME280;36272;59.400;17.982;2023-03-14T14:51:03;97914.06;;;5.19;94.92
50364;BME280;36272;59.400;17.982;2023-03-14T14:56:19;97922.28;;;5.17;95.60
50364;BME280;36272;59.400;17.982;2023-03-14T15:01:24;97929.91;;;5.14;95.29
50364;BME280;36272;59.400;17.982;2023-03-14T15:06:31;97946.91;;;5.18;95.04
50364;BME280;36272;59.400;17.982;2023-03-14T15:11:35;97956.19;;;5.15;94.93
50364;BME280;36272;59.400;17.982;2023-03-14T15:16:39;97951.28;;;5.02;95.01
50364;BME280;36272;59.400;17.982;2023-03-14T15:21:41;97960.00;;;4.97;95.13
50364;BME280;36272;59.400;17.982;2023-03-14T15:26:51;97955.16;;;4.89;95.36
50364;BME280;36272;59.400;17.982;2023-03-14T15:31:53;97962.00;;;4.85;95.47
50364;BME280;36272;59.400;17.982;2023-03-14T15:36:55;97971.00;;;4.84;95.56
50364;BME280;36272;59.400;17.982;2023-03-14T15:41:56;97972.81;;;4.78;95.39
50364;BME280;36272;59.400;17.982;2023-03-14T15:46:58;97994.50;;;4.75;95.57
50364;BME280;36272;59.400;17.982;2023-03-14T15:52:00;98004.50;;;4.68;95.41
50364;BME280;36272;59.400;17.982;2023-03-14T15:57:10;97993.84;;;4.63;95.62
50364;BME280;36272;59.400;17.982;2023-03-14T16:02:12;98022.97;;;4.63;95.51
50364;BME280;36272;59.400;17.982;2023-03-14T16:07:19;98029.69;;;4.48;95.51
50364;BME280;36272;59.400;17.982;2023-03-14T16:12:20;98055.81;;;4.39;95.79
50364;BME280;36272;59.400;17.982;2023-03-14T16:17:26;98051.97;;;4.30;95.66
50364;BME280;36272;59.400;17.982;2023-03-14T16:22:28;98077.59;;;4.46;95.79
50364;BME280;36272;59.400;17.982;2023-03-14T16:27:33;98076.22;;;4.22;95.57
50364;BME280;36272;59.400;17.982;2023-03-14T16:32:35;98092.06;;;4.16;95.29
50364;BME280;36272;59.400;17.982;2023-03-14T16:37:37;98102.41;;;4.01;94.84
50364;BME280;36272;59.400;17.982;2023-03-14T16:42:40;98114.44;;;3.92;94.51
50364;BME280;36272;59.400;17.982;2023-03-14T16:47:42;98133.25;;;3.78;94.74
50364;BME280;36272;59.400;17.982;2023-03-14T16:52:44;98134.25;;;3.72;95.24
50364;BME280;36272;59.400;17.982;2023-03-14T16:57:48;98147.59;;;3.65;95.17
50364;BME280;36272;59.400;17.982;2023-03-14T17:02:52;98159.13;;;3.59;95.15
50364;BME280;36272;59.400;17.982;2023-03-14T17:07:59;98154.47;;;3.49;95.48
50364;BME280;36272;59.400;17.982;2023-03-14T17:13:02;98165.88;;;3.50;95.57
50364;BME280;36272;59.400;17.982;2023-03-14T17:18:06;98169.88;;;3.69;95.75
50364;BME280;36272;59.400;17.982;2023-03-14T17:23:10;98182.53;;;3.50;95.45
50364;BME280;36272;59.400;17.982;2023-03-14T17:28:12;98191.97;;;3.46;96.07
50364;BME280;36272;59.400;17.982;2023-03-14T17:33:16;98208.84;;;3.45;96.02
50364;BME280;36272;59.400;17.982;2023-03-14T17:38:23;98219.91;;;3.42;96.02
50364;BME280;36272;59.400;17.982;2023-03-14T17:43:26;98206.84;;;3.35;96.05
50364;BME280;36272;59.400;17.982;2023-03-14T17:48:28;98220.84;;;3.36;96.08
50364;BME280;36272;59.400;17.982;2023-03-14T17:53:29;98226.03;;;3.31;96.17
50364;BME280;36272;59.400;17.982;2023-03-14T17:58:31;98223.78;;;3.22;95.94
50364;BME280;36272;59.400;17.982;2023-03-14T18:03:39;98242.59;;;3.26;96.10
50364;BME280;36272;59.400;17.982;2023-03-14T18:08:50;98257.56;;;3.20;96.09
50364;BME280;36272;59.400;17.982;2023-03-14T18:13:52;98270.75;;;3.20;95.90
50364;BME280;36272;59.400;17.982;2023-03-14T18:18:54;98265.94;;;3.17;95.72
50364;BME280;36272;59.400;17.982;2023-03-14T18:23:57;98284.31;;;3.12;96.14
50364;BME280;36272;59.400;17.982;2023-03-14T18:28:58;98294.78;;;3.07;96.25
50364;BME280;36272;59.400;17.982;2023-03-14T18:34:01;98294.06;;;3.11;95.82
50364;BME280;36272;59.400;17.982;2023-03-14T18:39:04;98299.59;;;3.10;95.91
50364;BME280;36272;59.400;17.982;2023-03-14T18:44:08;98322.56;;;3.09;95.85
50364;BME280;36272;59.400;17.982;2023-03-14T18:49:10;98343.94;;;3.08;95.95
50364;BME280;36272;59.400;17.982;2023-03-14T18:54:14;98366.22;;;3.12;95.92
50364;BME280;36272;59.400;17.982;2023-03-14T18:59:16;98369.66;;;3.12;95.72
50364;BME280;36272;59.400;17.982;2023-03-14T19:04:18;98398.38;;;3.09;95.55
50364;BME280;36272;59.400;17.982;2023-03-14T19:09:19;98417.09;;;3.07;95.60
50364;BME280;36272;59.400;17.982;2023-03-14T19:14:23;98422.59;;;3.06;95.92
50364;BME280;36272;59.400;17.982;2023-03-14T19:19:25;98426.06;;;3.06;95.81
50364;BME280;36272;59.400;17.982;2023-03-14T19:24:26;98442.59;;;3.02;95.60
50364;BME280;36272;59.400;17.982;2023-03-14T19:29:28;98452.09;;;2.79;94.84
50364;BME280;36272;59.400;17.982;2023-03-14T19:34:30;98450.47;;;2.78;95.82
50364;BME280;36272;59.400;17.982;2023-03-14T19:39:32;98457.50;;;2.84;95.98
50364;BME280;36272;59.400;17.982;2023-03-14T19:44:33;98483.66;;;2.86;96.06
50364;BME280;36272;59.400;17.982;2023-03-14T19:49:35;98480.56;;;2.89;96.06
50364;BME280;36272;59.400;17.982;2023-03-14T19:54:37;98495.97;;;2.92;95.76
50364;BME280;36272;59.400;17.982;2023-03-14T19:59:38;98504.34;;;2.89;95.82
50364;BME280;36272;59.400;17.982;2023-03-14T20:04:41;98509.63;;;2.89;95.66
50364;BME280;36272;59.400;17.982;2023-03-14T20:15:44;98518.34;;;2.89;95.53
50364;BME280;36272;59.400;17.982;2023-03-14T20:20:46;98530.50;;;2.90;95.41
50364;BME280;36272;59.400;17.982;2023-03-14T20:25:52;98535.75;;;2.78;95.63
50364;BME280;36272;59.400;17.982;2023-03-14T20:30:54;98553.06;;;2.74;95.08
50364;BME280;36272;59.400;17.982;2023-03-14T20:35:58;98550.88;;;2.71;95.39
50364;BME280;36272;59.400;17.982;2023-03-14T20:41:00;98576.69;;;2.69;95.37
50364;BME280;36272;59.400;17.982;2023-03-14T20:46:02;98579.78;;;2.66;95.14
50364;BME280;36272;59.400;17.982;2023-03-14T20:51:04;98582.31;;;2.61;95.04
50364;BME280;36272;59.400;17.982;2023-03-14T20:56:09;98592.47;;;2.57;95.06
50364;BME280;36272;59.400;17.982;2023-03-14T21:01:11;98602.69;;;2.53;94.71
50364;BME280;36272;59.400;17.982;2023-03-14T21:06:13;98615.16;;;2.46;94.86
50364;BME280;36272;59.400;17.982;2023-03-14T21:11:14;98615.81;;;2.42;94.88
50364;BME280;36272;59.400;17.982;2023-03-14T21:16:16;98625.19;;;2.37;94.59
50364;BME280;36272;59.400;17.982;2023-03-14T21:21:17;98632.53;;;2.35;94.48
50364;BME280;36272;59.400;17.982;2023-03-14T21:26:20;98630.53;;;2.31;94.29
50364;BME280;36272;59.400;17.982;2023-03-14T21:31:22;98650.69;;;2.25;94.57
50364;BME280;36272;59.400;17.982;2023-03-14T21:36:23;98666.28;;;2.27;94.43
50364;BME280;36272;59.400;17.982;2023-03-14T21:41:25;98676.13;;;2.19;94.56
50364;BME280;36272;59.400;17.982;2023-03-14T21:46:27;98672.88;;;2.17;94.48
50364;BME280;36272;59.400;17.982;2023-03-14T21:51:28;98672.91;;;2.11;94.23
50364;BME280;36272;59.400;17.982;2023-03-14T21:56:31;98696.50;;;2.05;94.13
50364;BME280;36272;59.400;17.982;2023-03-14T22:01:34;98698.97;;;2.00;94.13
50364;BME280;36272;59.400;17.982;2023-03-14T22:06:35;98713.03;;;1.94;94.31
50364;BME280;36272;59.400;17.982;2023-03-14T22:11:37;98718.50;;;1.92;94.02
50364;BME280;36272;59.400;17.982;2023-03-14T22:16:38;98741.28;;;1.87;94.15
50364;BME280;36272;59.400;17.982;2023-03-14T22:21:40;98734.81;;;1.83;93.97
50364;BME280;36272;59.400;17.982;2023-03-14T22:26:42;98740.09;;;1.83;93.88
50364;BME280;36272;59.400;17.982;2023-03-14T22:31:44;98747.81;;;1.77;93.90
50364;BME280;36272;59.400;17.982;2023-03-14T22:36:45;98761.41;;;1.74;94.01
50364;BME280;36272;59.400;17.982;2023-03-14T22:41:49;98762.44;;;1.73;93.78
50364;BME280;36272;59.400;17.982;2023-03-14T22:46:51;98781.31;;;1.70;93.81
50364;BME280;36272;59.400;17.982;2023-03-14T22:51:52;98788.84;;;1.67;93.70
50364;BME280;36272;59.400;17.982;2023-03-14T22:56:54;98793.72;;;1.63;94.03
50364;BME280;36272;59.400;17.982;2023-03-14T23:01:56;98792.09;;;1.62;93.80
50364;BME280;36272;59.400;17.982;2023-03-14T23:06:59;98791.50;;;1.60;93.71
50364;BME280;36272;59.400;17.982;2023-03-14T23:12:01;98799.03;;;1.56;93.80
50364;BME280;36272;59.400;17.982;2023-03-14T23:17:03;98799.66;;;1.52;93.81
50364;BME280;36272;59.400;17.982;2023-03-14T23:22:05;98807.56;;;1.52;93.69
50364;BME280;36272;59.400;17.982;2023-03-14T23:27:10;98817.50;;;1.50;93.41
50364;BME280;36272;59.400;17.982;2023-03-14T23:32:11;98814.88;;;1.50;93.20
50364;BME280;36272;59.400;17.982;2023-03-14T23:37:15;98841.44;;;1.48;93.36
50364;BME280;36272;59.400;17.982;2023-03-14T23:42:18;98841.03;;;1.44;93.66
50364;BME280;36272;59.400;17.982;2023-03-14T23:47:20;98859.91;;;1.41;93.66
50364;BME280;36272;59.400;17.982;2023-03-14T23:52:21;98866.38;;;1.39;93.90
50364;BME280;36272;59.400;17.982;2023-03-14T23:57:23;98869.22;;;1.37;94.06
